createdAt,value
2019-03-08T00:00:02.293Z,2.13
2019-03-08T00:02:36.616Z,1.40
2019-03-08T00:05:08.163Z,1.40
2019-03-08T00:07:39.980Z,1.50
2019-03-08T00:10:11.626Z,1.33
2019-03-08T00:12:43.188Z,1.00
2019-03-08T00:15:15.043Z,1.30
2019-03-08T00:17:46.579Z,1.10
2019-03-08T00:20:18.134Z,1.60
2019-03-08T00:22:51.131Z,0.70
2019-03-08T00:25:23.667Z,1.40
2019-03-08T00:27:55.199Z,0.90
2019-03-08T00:30:26.787Z,0.93
2019-03-08T00:32:58.308Z,1.00
2019-03-08T00:35:29.934Z,1.43
2019-03-08T00:38:01.436Z,1.10
2019-03-08T00:40:32.996Z,1.00
2019-03-08T00:43:04.841Z,1.20
2019-03-08T00:45:36.387Z,1.20
2019-03-08T00:48:07.919Z,1.00
2019-03-08T00:50:39.465Z,0.70
2019-03-08T00:53:11.020Z,1.10
2019-03-08T00:55:42.582Z,0.73
2019-03-08T00:58:14.202Z,0.90
2019-03-08T01:00:45.748Z,1.10
2019-03-08T01:03:17.286Z,1.20
2019-03-08T01:05:49.147Z,0.80
2019-03-08T01:08:20.700Z,1.00
2019-03-08T01:10:52.241Z,0.87
2019-03-08T01:13:23.807Z,0.73
2019-03-08T01:15:55.394Z,1.00
2019-03-08T01:18:26.928Z,1.13
2019-03-08T01:20:58.484Z,1.10
2019-03-08T01:23:31.515Z,1.10
2019-03-08T01:26:03.066Z,1.10
2019-03-08T01:28:36.623Z,1.13
2019-03-08T01:31:08.467Z,0.93
2019-03-08T01:33:41.740Z,0.87
2019-03-08T01:36:13.258Z,1.10
2019-03-08T01:38:44.836Z,0.87
2019-03-08T01:41:19.149Z,1.23
2019-03-08T01:43:50.710Z,0.80
2019-03-08T01:46:22.253Z,0.90
2019-03-08T01:48:53.816Z,0.80
2019-03-08T01:57:08.312Z,1.00
2019-03-08T01:59:40.034Z,1.00
2019-03-08T02:02:11.622Z,1.10
2019-03-08T02:04:43.215Z,0.80
2019-03-08T02:07:16.800Z,0.80
2019-03-08T02:09:48.347Z,1.10
2019-03-08T02:12:19.902Z,0.93
2019-03-08T02:14:53.247Z,0.90
2019-03-08T02:17:24.842Z,0.90
2019-03-08T02:19:56.396Z,0.87
2019-03-08T02:22:28.233Z,0.90
2019-03-08T02:25:00.736Z,0.70
2019-03-08T02:27:32.299Z,0.93
2019-03-08T02:30:03.876Z,0.77
2019-03-08T02:32:35.453Z,0.80
2019-03-08T02:35:07.546Z,0.83
2019-03-08T02:37:40.559Z,0.97
2019-03-08T02:40:31.682Z,0.70
2019-03-08T02:43:05.275Z,0.80
2019-03-08T02:45:36.805Z,0.83
2019-03-08T02:48:10.871Z,1.03
2019-03-08T02:50:42.395Z,1.03
2019-03-08T02:53:13.947Z,0.90
2019-03-08T02:55:46.773Z,0.87
2019-03-08T02:58:18.308Z,1.13
2019-03-08T03:00:49.840Z,0.90
2019-03-08T03:03:21.390Z,0.70
2019-03-08T03:05:56.184Z,1.00
2019-03-08T03:08:27.728Z,0.80
2019-03-08T03:10:59.256Z,1.20
2019-03-08T03:13:30.812Z,0.90
2019-03-08T03:16:02.356Z,0.70
2019-03-08T03:18:33.899Z,0.90
2019-03-08T03:21:05.430Z,0.73
2019-03-08T03:23:36.979Z,0.50
2019-03-08T03:26:08.505Z,0.50
2019-03-08T03:28:42.442Z,0.60
2019-03-08T03:31:13.684Z,0.60
2019-03-08T03:33:45.232Z,0.50
2019-03-08T03:36:16.798Z,0.57
2019-03-08T03:38:48.359Z,0.63
2019-03-08T03:41:19.883Z,0.70
2019-03-08T03:43:51.547Z,0.60
2019-03-08T03:46:23.087Z,0.70
2019-03-08T03:48:54.637Z,0.60
2019-03-08T03:51:26.274Z,0.50
2019-03-08T03:54:00.870Z,0.57
2019-03-08T03:56:32.390Z,0.77
2019-03-08T03:59:03.943Z,0.70
2019-03-08T04:01:39.140Z,0.60
2019-03-08T04:04:10.702Z,0.80
2019-03-08T04:06:42.257Z,0.70
2019-03-08T04:09:14.524Z,0.77
2019-03-08T04:11:46.047Z,0.93
2019-03-08T04:14:17.578Z,0.70
2019-03-08T04:16:49.116Z,0.70
2019-03-08T04:19:20.738Z,0.70
2019-03-08T04:21:52.302Z,0.80
2019-03-08T04:24:23.838Z,0.70
2019-03-08T04:26:55.560Z,0.60
2019-03-08T04:29:27.140Z,0.80
2019-03-08T04:31:58.676Z,0.60
2019-03-08T04:34:30.218Z,0.50
2019-03-08T04:37:01.777Z,0.63
2019-03-08T04:39:33.581Z,0.57
2019-03-08T04:42:05.151Z,0.57
2019-03-08T04:44:36.670Z,0.57
2019-03-08T04:47:08.221Z,0.53
2019-03-08T04:49:39.763Z,0.70
2019-03-08T04:52:11.380Z,0.50
2019-03-08T04:54:42.916Z,0.30
2019-03-08T04:57:14.460Z,0.80
2019-03-08T04:59:45.975Z,0.50
2019-03-08T05:02:17.529Z,0.70
2019-03-08T05:04:49.054Z,0.60
2019-03-08T05:07:22.902Z,0.53
2019-03-08T05:09:54.420Z,0.60
2019-03-08T05:12:27.374Z,0.60
2019-03-08T05:14:59.171Z,0.50
2019-03-08T05:17:30.725Z,0.60
2019-03-08T05:20:02.272Z,0.40
2019-03-08T05:22:33.820Z,0.70
2019-03-08T05:25:06.116Z,0.60
2019-03-08T05:27:37.848Z,0.60
2019-03-08T05:30:10.452Z,0.73
2019-03-08T05:32:42.005Z,0.70
2019-03-08T05:35:14.671Z,0.50
2019-03-08T05:37:48.202Z,0.70
2019-03-08T05:40:19.732Z,0.60
2019-03-08T05:42:51.279Z,0.57
2019-03-08T05:45:22.824Z,0.50
2019-03-08T05:47:54.376Z,0.63
2019-03-08T05:50:26.180Z,0.60
2019-03-08T05:52:57.738Z,0.70
2019-03-08T05:55:29.288Z,0.60
2019-03-08T05:58:00.848Z,0.60
2019-03-08T06:00:35.055Z,0.60
2019-03-08T06:03:08.795Z,0.80
2019-03-08T06:05:40.341Z,0.60
2019-03-08T06:08:11.869Z,0.60
2019-03-08T06:10:43.446Z,0.63
2019-03-08T06:13:14.967Z,0.60
2019-03-08T06:15:46.522Z,1.03
2019-03-08T06:18:18.085Z,0.80
2019-03-08T06:20:49.700Z,0.90
2019-03-08T06:23:21.257Z,0.73
2019-03-08T06:25:52.829Z,0.77
2019-03-08T06:28:24.358Z,0.53
2019-03-08T06:30:55.996Z,0.60
2019-03-08T06:33:27.534Z,0.60
2019-03-08T06:36:00.694Z,0.80
2019-03-08T06:38:32.226Z,1.27
2019-03-08T06:41:05.552Z,0.90
2019-03-08T06:43:38.080Z,0.60
2019-03-08T06:46:09.661Z,0.70
2019-03-08T06:48:41.196Z,0.60
2019-03-08T06:51:13.019Z,3.10
2019-03-08T06:53:44.576Z,2.60
2019-03-08T06:56:16.168Z,1.30
2019-03-08T06:59:21.626Z,0.93
2019-03-08T07:01:53.195Z,1.17
2019-03-08T07:04:24.748Z,0.93
2019-03-08T07:06:57.302Z,1.90
2019-03-08T07:09:28.872Z,1.20
2019-03-08T07:12:00.436Z,1.20
2019-03-08T07:14:32.001Z,0.90
2019-03-08T07:17:03.562Z,0.90
2019-03-08T07:19:40.629Z,1.20
2019-03-08T07:22:14.090Z,1.13
2019-03-08T07:25:07.869Z,1.20
2019-03-08T07:27:58.676Z,1.70
2019-03-08T07:30:47.142Z,1.20
2019-03-08T07:33:53.229Z,1.07
2019-03-08T07:36:35.654Z,1.20
2019-03-08T07:39:36.869Z,1.13
2019-03-08T07:42:25.888Z,1.13
2019-03-08T07:45:15.167Z,1.10
2019-03-08T07:48:05.812Z,1.07
2019-03-08T07:50:54.892Z,1.53
2019-03-08T07:53:41.621Z,1.17
2019-03-08T07:56:34.847Z,2.43
2019-03-08T07:59:25.295Z,1.13
2019-03-08T08:02:21.516Z,1.20
2019-03-08T08:05:14.815Z,1.20
2019-03-08T08:08:06.977Z,1.00
2019-03-08T08:10:56.717Z,1.27
2019-03-08T08:13:47.137Z,1.57
2019-03-08T08:16:37.583Z,1.10
2019-03-08T08:19:26.623Z,1.13
2019-03-08T08:22:17.088Z,1.33
2019-03-08T08:24:54.846Z,1.30
2019-03-08T08:27:36.164Z,1.77
2019-03-08T08:30:43.078Z,1.30
2019-03-08T08:33:50.910Z,1.40
2019-03-08T08:36:41.391Z,1.23
2019-03-08T08:39:37.274Z,3.50
2019-03-08T08:42:22.170Z,1.00
2019-03-08T08:45:04.122Z,1.10
2019-03-08T08:48:00.615Z,1.10
2019-03-08T08:50:48.998Z,1.30
2019-03-08T08:53:51.816Z,1.20
2019-03-08T08:56:54.532Z,1.10
2019-03-08T08:59:43.863Z,1.43
2019-03-08T09:02:41.658Z,0.90
2019-03-08T09:05:38.187Z,1.27
2019-03-08T09:08:15.452Z,1.00
2019-03-08T09:11:21.293Z,1.20
2019-03-08T09:14:00.709Z,1.40
2019-03-08T09:16:57.672Z,1.40
2019-03-08T09:19:51.064Z,0.90
2019-03-08T09:22:41.505Z,0.90
2019-03-08T09:25:26.678Z,1.40
2019-03-08T09:28:20.083Z,0.90
2019-03-08T09:31:10.720Z,1.30
2019-03-08T09:34:07.219Z,1.17
2019-03-08T09:37:00.699Z,1.20
2019-03-08T09:40:00.314Z,1.10
2019-03-08T09:42:49.895Z,1.00
2019-03-08T09:45:35.560Z,1.20
2019-03-08T09:48:13.253Z,1.40
2019-03-08T09:51:03.951Z,0.73
2019-03-08T09:53:54.398Z,1.23
2019-03-08T09:56:31.873Z,1.23
2019-03-08T09:59:23.762Z,1.47
2019-03-08T10:02:06.539Z,1.10
2019-03-08T10:05:02.957Z,1.47
2019-03-08T10:07:56.342Z,1.00
2019-03-08T10:10:35.329Z,1.00
2019-03-08T10:13:13.566Z,1.50
2019-03-08T10:16:07.038Z,1.10
2019-03-08T10:19:02.714Z,1.17
2019-03-08T10:21:59.447Z,1.30
2019-03-08T10:24:52.996Z,1.13
2019-03-08T10:27:38.398Z,0.70
2019-03-08T10:30:41.414Z,1.03
2019-03-08T10:33:46.244Z,1.10
2019-03-08T10:36:33.010Z,1.03
2019-03-08T10:39:22.339Z,1.37
2019-03-08T10:42:10.178Z,1.10
2019-03-08T10:44:54.407Z,0.80
2019-03-08T10:47:35.051Z,1.27
2019-03-08T10:50:29.925Z,1.37
2019-03-08T10:53:09.873Z,0.90
2019-03-08T10:55:49.228Z,0.97
2019-03-08T10:58:38.796Z,0.90
2019-03-08T11:01:41.858Z,0.90
2019-03-08T11:04:30.092Z,0.87
2019-03-08T11:07:29.371Z,1.00
2019-03-08T11:10:31.119Z,1.10
2019-03-08T11:13:20.769Z,0.80
2019-03-08T11:16:11.425Z,1.17
2019-03-08T11:19:08.806Z,0.80
2019-03-08T11:21:50.406Z,0.80
2019-03-08T11:24:46.554Z,1.00
2019-03-08T11:27:55.180Z,0.97
2019-03-08T11:30:42.408Z,1.03
2019-03-08T11:33:35.843Z,0.90
2019-03-08T11:36:20.169Z,1.00
2019-03-08T11:39:16.065Z,0.83
2019-03-08T11:42:05.116Z,1.00
2019-03-08T11:44:55.571Z,0.97
2019-03-08T11:48:04.377Z,1.37
2019-03-08T11:50:53.433Z,1.10
2019-03-08T11:53:37.419Z,0.87
2019-03-08T11:56:27.859Z,1.03
2019-03-08T11:59:18.404Z,1.00
2019-03-08T12:02:05.667Z,0.93
2019-03-08T12:04:50.066Z,1.10
2019-03-08T12:07:47.389Z,1.63
2019-03-08T12:10:36.639Z,1.00
2019-03-08T12:13:27.098Z,2.40
2019-03-08T12:16:21.832Z,1.40
2019-03-08T12:19:01.062Z,1.10
2019-03-08T12:21:51.601Z,1.17
2019-03-08T12:24:32.111Z,0.93
2019-03-08T12:27:22.781Z,1.10
2019-03-08T12:30:11.351Z,1.00
2019-03-08T12:33:07.839Z,1.20
2019-03-08T12:35:57.696Z,1.30
2019-03-08T12:38:46.862Z,1.53
2019-03-08T12:41:36.239Z,0.97
2019-03-08T12:44:32.749Z,1.10
2019-03-08T12:47:39.687Z,1.23
2019-03-08T12:50:29.093Z,1.43
2019-03-08T12:53:22.563Z,1.10
2019-03-08T12:56:22.108Z,1.13
2019-03-08T12:59:18.262Z,1.20
2019-03-08T13:02:14.154Z,1.00
2019-03-08T13:05:19.638Z,1.60
2019-03-08T13:08:15.916Z,1.60
2019-03-08T13:10:48.620Z,1.50
2019-03-08T13:13:21.342Z,1.20
2019-03-08T13:15:52.968Z,1.20
2019-03-08T13:18:24.570Z,1.40
2019-03-08T13:20:56.190Z,1.43
2019-03-08T13:23:30.249Z,1.20
2019-03-08T13:26:02.283Z,1.30
2019-03-08T13:28:33.852Z,2.83
2019-03-08T13:31:06.547Z,2.50
2019-03-08T13:33:38.151Z,1.80
2019-03-08T13:36:10.627Z,1.57
2019-03-08T13:38:42.242Z,1.23
2019-03-08T13:41:13.835Z,1.40
2019-03-08T13:43:45.450Z,1.70
2019-03-08T13:46:17.025Z,1.60
2019-03-08T13:48:48.685Z,2.13
2019-03-08T13:51:20.247Z,1.63
2019-03-08T13:53:51.911Z,1.60
2019-03-08T13:56:23.545Z,2.00
2019-03-08T13:58:55.099Z,1.40
2019-03-08T14:01:26.714Z,1.40
2019-03-08T14:03:58.305Z,1.70
2019-03-08T14:06:30.051Z,2.00
2019-03-08T14:09:01.668Z,2.03
2019-03-08T14:11:35.075Z,2.67
2019-03-08T14:14:06.651Z,1.60
2019-03-08T14:16:38.254Z,1.37
2019-03-08T14:19:09.832Z,1.53
2019-03-08T14:21:41.417Z,1.10
2019-03-08T14:24:13.009Z,1.60
2019-03-08T14:26:44.584Z,1.20
2019-03-08T14:29:18.844Z,1.30
2019-03-08T14:31:54.827Z,1.60
2019-03-08T14:34:26.457Z,1.57
2019-03-08T14:36:58.043Z,1.60
2019-03-08T14:39:31.530Z,1.53
2019-03-08T14:42:21.953Z,1.67
2019-03-08T14:44:58.855Z,1.43
2019-03-08T14:47:51.540Z,1.50
2019-03-08T14:50:23.132Z,1.50
2019-03-08T14:52:55.779Z,1.20
2019-03-08T14:55:27.992Z,1.60
2019-03-08T14:58:00.482Z,1.40
2019-03-08T15:00:33.691Z,2.03
2019-03-08T15:03:05.578Z,1.70
2019-03-08T15:05:37.147Z,1.40
2019-03-08T15:08:08.723Z,1.90
2019-03-08T15:10:43.557Z,1.67
2019-03-08T15:13:13.743Z,1.37
2019-03-08T15:15:45.404Z,1.40
2019-03-08T15:18:17.236Z,1.40
2019-03-08T15:20:48.857Z,1.40
2019-03-08T15:23:20.428Z,1.50
2019-03-08T15:25:52.020Z,1.20
2019-03-08T15:28:23.755Z,1.50
2019-03-08T15:30:57.513Z,1.50
2019-03-08T15:33:28.946Z,1.50
2019-03-08T15:36:00.592Z,1.67
2019-03-08T15:38:32.205Z,1.53
2019-03-08T15:41:03.802Z,1.70
2019-03-08T15:43:35.413Z,2.07
2019-03-08T15:46:07.357Z,1.40
2019-03-08T15:48:39.134Z,1.50
2019-03-08T15:51:11.779Z,1.30
2019-03-08T15:53:43.388Z,1.80
2019-03-08T15:56:14.993Z,1.53
2019-03-08T15:58:46.871Z,1.63
2019-03-08T16:01:18.913Z,1.40
2019-03-08T16:03:50.667Z,1.60
2019-03-08T16:06:22.269Z,1.40
2019-03-08T16:08:55.881Z,2.00
2019-03-08T16:11:27.718Z,1.27
2019-03-08T16:14:08.253Z,1.13
2019-03-08T16:16:32.623Z,3.40
2019-03-08T16:19:04.225Z,1.30
2019-03-08T16:21:37.357Z,1.10
2019-03-08T16:24:09.163Z,1.03
2019-03-08T16:26:42.265Z,1.30
2019-03-08T16:29:16.806Z,1.07
2019-03-08T16:32:06.906Z,0.97
2019-03-08T16:34:41.263Z,1.10
2019-03-08T16:37:26.316Z,1.50
2019-03-08T16:40:31.519Z,1.40
2019-03-08T16:43:14.428Z,1.13
2019-03-08T16:46:03.361Z,1.30
2019-03-08T16:48:54.062Z,1.80
2019-03-08T16:51:47.433Z,1.10
2019-03-08T16:54:37.528Z,1.17
2019-03-08T16:57:23.814Z,1.43
2019-03-08T17:00:11.224Z,1.40
2019-03-08T17:03:01.799Z,1.37
2019-03-08T17:05:55.302Z,1.50
2019-03-08T17:08:36.224Z,1.47
2019-03-08T17:11:44.877Z,1.40
2019-03-08T17:14:45.852Z,1.67
2019-03-08T17:17:35.138Z,1.30
2019-03-08T17:20:33.923Z,1.20
2019-03-08T17:23:24.401Z,1.50
2019-03-08T17:26:15.966Z,1.90
2019-03-08T17:29:18.764Z,1.53
2019-03-08T17:32:01.453Z,1.70
2019-03-08T17:34:45.698Z,2.37
2019-03-08T17:37:42.373Z,4.30
2019-03-08T17:40:32.924Z,14.17
2019-03-08T17:43:30.285Z,3.60
2019-03-08T17:46:16.654Z,2.73
2019-03-08T17:49:09.739Z,5.60
2019-03-08T17:52:03.297Z,3.07
2019-03-08T17:54:53.059Z,7.07
2019-03-08T17:57:44.860Z,4.90
2019-03-08T18:00:39.353Z,3.33
2019-03-08T18:03:17.279Z,3.97
2019-03-08T18:06:08.443Z,3.97
2019-03-08T18:09:15.109Z,3.30
2019-03-08T18:12:08.476Z,2.50
2019-03-08T18:15:14.005Z,2.90
2019-03-08T18:18:06.444Z,2.60
2019-03-08T18:20:57.446Z,2.60
2019-03-08T18:23:39.327Z,12.47
2019-03-08T18:26:28.697Z,5.90
2019-03-08T18:29:27.765Z,10.33
2019-03-08T18:32:17.988Z,7.20
2019-03-08T18:35:23.820Z,5.13
2019-03-08T18:38:17.035Z,5.87
2019-03-08T18:41:06.593Z,6.30
2019-03-08T18:44:00.138Z,6.20
2019-03-08T18:46:52.656Z,5.20
2019-03-08T18:49:33.448Z,5.73
2019-03-08T18:52:42.083Z,5.30
2019-03-08T18:55:44.567Z,4.83
2019-03-08T18:58:39.007Z,4.43
2019-03-08T19:01:31.091Z,4.00
2019-03-08T19:04:11.803Z,4.00
2019-03-08T19:07:04.257Z,18.53
2019-03-08T19:09:46.132Z,17.90
2019-03-08T19:12:46.770Z,14.37
2019-03-08T19:15:37.264Z,7.60
2019-03-08T19:18:26.634Z,8.10
2019-03-08T19:21:12.144Z,8.10
2019-03-08T19:24:04.477Z,10.23
2019-03-08T19:26:51.620Z,6.87
2019-03-08T19:29:45.126Z,4.63
2019-03-08T19:32:54.056Z,4.30
2019-03-08T19:35:38.200Z,20.17
2019-03-08T19:38:28.280Z,31.97
2019-03-08T19:41:21.443Z,28.90
2019-03-08T19:44:14.948Z,25.47
2019-03-08T19:47:07.514Z,14.83
2019-03-08T19:49:57.958Z,11.10
2019-03-08T19:52:57.451Z,11.40
2019-03-08T19:55:37.169Z,9.50
2019-03-08T19:58:26.672Z,12.60
2019-03-08T20:01:35.174Z,14.80
2019-03-08T20:04:27.338Z,16.00
2019-03-08T20:07:15.568Z,16.10
2019-03-08T20:10:04.662Z,17.70
2019-03-08T20:12:44.936Z,20.80
2019-03-08T20:15:47.248Z,22.13
2019-03-08T20:18:50.994Z,15.30
2019-03-08T20:21:39.467Z,14.40
2019-03-08T20:24:35.866Z,20.17
2019-03-08T20:27:24.979Z,14.07
2019-03-08T20:30:13.508Z,23.13
2019-03-08T20:33:02.938Z,11.23
2019-03-08T20:35:54.642Z,9.90
2019-03-08T20:38:45.040Z,10.80
2019-03-08T20:41:39.573Z,11.80
2019-03-08T20:44:27.071Z,12.70
2019-03-08T20:47:02.712Z,12.97
2019-03-08T20:49:35.835Z,12.17
2019-03-08T20:52:07.554Z,10.27
2019-03-08T20:54:39.441Z,12.20
2019-03-08T20:57:13.550Z,10.77
2019-03-08T20:59:50.663Z,10.43
2019-03-08T21:02:24.365Z,9.60
2019-03-08T21:05:02.778Z,11.30
2019-03-08T21:07:37.860Z,18.13
2019-03-08T21:10:11.909Z,12.87
2019-03-08T21:12:45.279Z,11.30
2019-03-08T21:15:24.918Z,10.17
2019-03-08T21:17:50.136Z,11.63
2019-03-08T21:20:22.901Z,10.73
2019-03-08T21:23:00.231Z,11.77
2019-03-08T21:25:33.887Z,11.73
2019-03-08T21:28:07.348Z,11.43
2019-03-08T21:30:42.048Z,12.80
2019-03-08T21:33:13.999Z,11.90
2019-03-08T21:35:45.674Z,10.63
2019-03-08T21:38:19.320Z,12.67
2019-03-08T21:40:50.990Z,12.17
2019-03-08T21:43:24.033Z,12.53
2019-03-08T21:45:55.625Z,12.80
2019-03-08T21:48:27.368Z,11.40
2019-03-08T21:50:59.000Z,11.13
2019-03-08T21:53:30.682Z,11.70
2019-03-08T21:56:03.570Z,11.00
2019-03-08T21:58:37.300Z,11.50
2019-03-08T22:01:08.952Z,11.03
2019-03-08T22:03:42.406Z,11.20
2019-03-08T22:06:14.026Z,10.13
2019-03-08T22:08:58.412Z,11.00
2019-03-08T22:11:35.123Z,11.50
2019-03-08T22:14:10.787Z,11.93
2019-03-08T22:16:45.615Z,12.17
2019-03-08T22:19:18.616Z,11.77
2019-03-08T22:21:51.242Z,10.60
2019-03-08T22:24:25.610Z,10.10
2019-03-08T22:26:59.182Z,10.27
2019-03-08T22:29:31.779Z,10.37
2019-03-08T22:32:03.334Z,10.23
2019-03-08T22:34:34.963Z,10.53
2019-03-08T22:37:08.129Z,9.60
2019-03-08T22:39:41.673Z,9.33
2019-03-08T22:42:16.405Z,10.40
2019-03-08T22:44:49.057Z,9.07
2019-03-08T22:47:25.406Z,9.83
2019-03-08T22:49:58.222Z,9.13
2019-03-08T22:52:31.212Z,8.83
2019-03-08T22:55:09.139Z,9.33
2019-03-08T22:57:42.247Z,8.53
2019-03-08T23:00:55.669Z,9.13
2019-03-08T23:03:30.058Z,8.23
2019-03-08T23:06:06.478Z,8.43
2019-03-08T23:08:38.054Z,8.27
2019-03-08T23:11:12.719Z,8.73
2019-03-08T23:13:46.022Z,8.37
2019-03-08T23:16:21.548Z,8.73
2019-03-08T23:18:53.112Z,9.23
2019-03-08T23:21:26.266Z,9.80
2019-03-08T23:24:01.065Z,9.87
2019-03-08T23:26:42.130Z,9.37
2019-03-08T23:29:26.963Z,9.13
2019-03-08T23:32:02.881Z,9.40
2019-03-08T23:34:34.722Z,10.10
2019-03-08T23:37:06.597Z,9.00
2019-03-08T23:39:40.263Z,9.17
2019-03-08T23:42:14.161Z,11.00
2019-03-08T23:44:46.162Z,10.70
2019-03-08T23:47:17.722Z,10.10
2019-03-08T23:49:49.289Z,9.40
2019-03-08T23:52:20.891Z,10.50
2019-03-08T23:54:54.576Z,10.00
2019-03-08T23:57:31.133Z,8.30
